Main page
METAR-TAF:

METAR-TAF

Airports :

Tafraoui, Algeria

Oran Tafraoui Airport

latitude: 35-32-33N, longitude: 000-31-56W, elevation: 112 m

Current weather observation

The report was made 1 hour and 8 minutes ago, at 18:00 UTC
Wind 10 kt from the East
Temperature 21°C
Humidity 73%
Pressure 1008 hPa
Visibility: 6000 m
Broken clouds at a height of 2600 ft
Scattered clouds at a height of 10000 ft

METAR: DAOL 231800Z 09010KT 6000 BKN026 SCT100 21/16 Q1008

Time: 20:08 (19:08 UTC)


TAF: missing

Weather observations and forecasts of more than 4000 airports (METAR and TAF reports).

The available stations are represented by yellow and red dots on the map.

Hover mouse over dot to see the name of the station.

Then click to see weather observations and forecasts.

To change the map : click on the green buttons with a black cross to zoom in, on the green button with a dash to zoom out, or on the green arrows for adjacent maps.


METAR-TAF: